Time;durP1;ratioP1;P1;durP2;ratioP2;P2;SDS_P1;SDS_P2;PMS_P1;PMS_P2;Temp;Humidity;BMP_temperature;BMP_pressure;BME280_temperature;BME280_humidity;BME280_pressure;Samples;Min_cycle;Max_cycle;Signal;HPM_P1;HPM_P2
2023/01/07 00:01:20;;;;;;;36.53;26.10;;;;;;;;;;6276496;22;20449;-68
2023/01/07 00:03:47;;;;;;;43.83;27.30;;;;;;;;;;6276671;22;20007;-68
2023/01/07 00:06:14;;;;;;;34.28;25.80;;;;;;;;;;6276689;22;20003;-68
2023/01/07 00:08:41;;;;;;;37.58;27.52;;;;;;;;;;6276791;22;20000;-67
2023/01/07 00:11:08;;;;;;;36.67;26.83;;;;;;;;;;6276725;22;20011;-68
2023/01/07 00:13:35;;;;;;;45.05;27.85;;;;;;;;;;6276668;22;19999;-67
2023/01/07 00:16:05;;;;;;;38.90;25.02;;;;;;;;;;6276662;22;20448;-68
2023/01/07 00:18:31;;;;;;;35.72;25.60;;;;;;;;;;6276499;22;19995;-68
2023/01/07 00:20:58;;;;;;;40.30;26.05;;;;;;;;;;6276662;22;20000;-68
2023/01/07 00:23:25;;;;;;;40.03;27.40;;;;;;;;;;6276283;22;20434;-67
2023/01/07 00:25:51;;;;;;;39.40;26.48;;;;;;;;;;6249896;22;20007;-68
2023/01/07 00:28:18;;;;;;;37.58;25.77;;;;;;;;;;6276081;22;20350;-69
2023/01/07 00:30:44;;;;;;;40.83;27.45;;;;;;;;;;6276783;22;20389;-67
2023/01/07 00:33:13;;;;;;;40.10;25.98;;;;;;;;;;6276462;22;20003;-68
2023/01/07 00:35:40;;;;;;;35.63;25.92;;;;;;;;;;6249252;22;20017;-68
2023/01/07 00:38:06;;;;;;;40.85;26.25;;;;;;;;;;6276532;22;19999;-68
2023/01/07 00:40:32;;;;;;;40.13;26.33;;;;;;;;;;6276418;22;20045;-68
2023/01/07 00:43:04;;;;;;;38.08;25.75;;;;;;;;;;6276516;22;20730;-68
2023/01/07 00:45:32;;;;;;;36.83;26.63;;;;;;;;;;6276436;22;20003;-67
2023/01/07 00:47:59;;;;;;;38.03;26.35;;;;;;;;;;6276132;22;20684;-68
2023/01/07 00:50:26;;;;;;;35.95;26.85;;;;;;;;;;6276555;22;19996;-68
2023/01/07 00:52:53;;;;;;;38.40;26.57;;;;;;;;;;6276388;22;19999;-68
2023/01/07 00:55:19;;;;;;;49.53;31.40;;;;;;;;;;6276499;22;20334;-67
2023/01/07 00:57:45;;;;;;;64.55;36.20;;;;;;;;;;6276459;22;20023;-68
2023/01/07 01:00:13;;;;;;;42.33;27.85;;;;;;;;;;6276123;22;20000;-67
2023/01/07 01:02:39;;;;;;;41.25;27.42;;;;;;;;;;6276180;22;19999;-67
2023/01/07 01:05:05;;;;;;;40.78;26.92;;;;;;;;;;6276197;22;20007;-68
2023/01/07 01:07:33;;;;;;;42.88;28.50;;;;;;;;;;6276305;22;20019;-67
2023/01/07 01:09:59;;;;;;;47.10;29.90;;;;;;;;;;6276479;22;20003;-67
2023/01/07 01:12:25;;;;;;;38.53;26.67;;;;;;;;;;6276191;22;19996;-66
2023/01/07 01:14:51;;;;;;;43.97;28.88;;;;;;;;;;6248991;22;20342;-68
2023/01/07 01:17:17;;;;;;;55.45;34.53;;;;;;;;;;6248949;22;20090;-68
2023/01/07 01:19:43;;;;;;;54.88;32.97;;;;;;;;;;6275740;22;20504;-67
2023/01/07 01:22:09;;;;;;;51.10;32.13;;;;;;;;;;6276130;22;20469;-68
2023/01/07 01:24:35;;;;;;;51.63;32.60;;;;;;;;;;6275992;22;20057;-68
2023/01/07 01:27:01;;;;;;;44.92;29.13;;;;;;;;;;6276269;22;20027;-67
2023/01/07 01:29:27;;;;;;;38.60;27.00;;;;;;;;;;6275892;22;20016;-67
2023/01/07 01:31:53;;;;;;;37.05;25.80;;;;;;;;;;6276288;22;19996;-67
2023/01/07 01:34:19;;;;;;;36.95;25.83;;;;;;;;;;6276267;22;20003;-68
2023/01/07 01:36:45;;;;;;;34.95;24.92;;;;;;;;;;6276145;22;20006;-67
2023/01/07 01:39:11;;;;;;;34.67;25.30;;;;;;;;;;6276163;22;20000;-67
2023/01/07 01:41:37;;;;;;;36.50;25.67;;;;;;;;;;6275983;22;20004;-68
2023/01/07 01:44:22;;;;;;;37.25;25.73;;;;;;;;;;6275972;22;20338;-67
2023/01/07 01:46:48;;;;;;;37.53;25.42;;;;;;;;;;6275777;22;20000;-68
2023/01/07 01:49:26;;;;;;;37.10;25.88;;;;;;;;;;6275871;22;20006;-68
2023/01/07 01:52:01;;;;;;;38.03;24.75;;;;;;;;;;6276092;22;20003;-67
2023/01/07 01:54:28;;;;;;;30.23;20.92;;;;;;;;;;6275961;22;19996;-68
2023/01/07 01:56:55;;;;;;;34.53;21.50;;;;;;;;;;6276176;22;20419;-69
2023/01/07 01:59:23;;;;;;;30.55;19.58;;;;;;;;;;6272826;22;20428;-68
2023/01/07 02:01:49;;;;;;;27.63;18.55;;;;;;;;;;6272401;22;20465;-68
2023/01/07 02:04:17;;;;;;;28.35;18.90;;;;;;;;;;6273416;22;20015;-68
2023/01/07 02:06:49;;;;;;;29.45;20.13;;;;;;;;;;6275388;22;20050;-67
2023/01/07 02:09:15;;;;;;;29.60;19.45;;;;;;;;;;6275814;22;20018;-68
2023/01/07 02:11:41;;;;;;;28.70;18.83;;;;;;;;;;6275606;22;20442;-68
2023/01/07 02:14:19;;;;;;;26.95;19.25;;;;;;;;;;6275101;22;19996;-68
2023/01/07 02:16:50;;;;;;;29.33;21.25;;;;;;;;;;6275684;22;19999;-68
2023/01/07 02:19:26;;;;;;;27.55;19.77;;;;;;;;;;6277422;22;20434;-67
2023/01/07 02:22:02;;;;;;;34.03;21.45;;;;;;;;;;6277566;22;20004;-68
2023/01/07 02:24:30;;;;;;;29.17;20.52;;;;;;;;;;6277875;22;20340;-67
2023/01/07 02:27:03;;;;;;;36.13;22.48;;;;;;;;;;6277624;22;20023;-68
2023/01/07 02:29:29;;;;;;;;;;;;;;;;;;6277513;22;20090;-68
2023/01/07 02:31:58;;;;;;;29.58;19.65;;;;;;;;;;6277328;22;19899;-70
2023/01/07 02:34:47;;;;;;;30.02;20.65;;;;;;;;;;6277373;22;20000;-68
2023/01/07 02:37:32;;;;;;;27.85;21.23;;;;;;;;;;6276774;22;20031;-68
2023/01/07 02:40:10;;;;;;;29.60;20.77;;;;;;;;;;6277576;22;20039;-68
2023/01/07 02:42:55;;;;;;;28.15;20.10;;;;;;;;;;6277307;22;20071;-69
2023/01/07 02:45:27;;;;;;;33.28;20.55;;;;;;;;;;6277256;22;20008;-67
2023/01/07 02:47:56;;;;;;;27.80;19.17;;;;;;;;;;6277798;22;20095;-68
2023/01/07 02:50:22;;;;;;;30.90;20.35;;;;;;;;;;6277703;22;20137;-67
2023/01/07 02:52:48;;;;;;;29.85;19.30;;;;;;;;;;6277156;22;20026;-68
2023/01/07 02:55:32;;;;;;;29.60;20.42;;;;;;;;;;6277348;22;20334;-68
2023/01/07 02:58:14;;;;;;;28.85;20.00;;;;;;;;;;6277504;22;20011;-69
2023/01/07 03:00:40;;;;;;;29.67;20.17;;;;;;;;;;6277570;22;20146;-67
2023/01/07 03:03:24;;;;;;;29.77;20.30;;;;;;;;;;6277234;22;20063;-67
2023/01/07 03:05:54;;;;;;;29.58;20.55;;;;;;;;;;6277071;22;20053;-68
2023/01/07 03:08:39;;;;;;;29.63;21.35;;;;;;;;;;6250222;22;20049;-68
2023/01/07 03:11:07;;;;;;;34.53;21.90;;;;;;;;;;6277446;22;19999;-67
2023/01/07 03:13:50;;;;;;;32.10;21.23;;;;;;;;;;6277353;22;19996;-68
2023/01/07 03:16:16;;;;;;;30.75;21.75;;;;;;;;;;6277172;22;20322;-68
2023/01/07 03:18:46;;;;;;;31.95;21.35;;;;;;;;;;6277281;22;20000;-68
2023/01/07 03:21:14;;;;;;;33.72;22.83;;;;;;;;;;6277151;22;20003;-68
2023/01/07 03:23:43;;;;;;;29.80;21.10;;;;;;;;;;6277249;22;20008;-68
2023/01/07 03:26:10;;;;;;;29.60;20.52;;;;;;;;;;6276975;22;20004;-68
2023/01/07 03:28:40;;;;;;;36.67;20.85;;;;;;;;;;6276663;22;20039;-68
2023/01/07 03:31:08;;;;;;;33.20;21.02;;;;;;;;;;6276440;22;19999;-68
2023/01/07 03:33:39;;;;;;;35.28;20.27;;;;;;;;;;6276887;22;20027;-68
2023/01/07 03:36:05;;;;;;;27.92;18.58;;;;;;;;;;6276791;22;19996;-68
2023/01/07 03:38:33;;;;;;;31.30;18.27;;;;;;;;;;6277013;22;20414;-68
2023/01/07 03:40:59;;;;;;;27.38;17.58;;;;;;;;;;6277227;22;20426;-68
2023/01/07 03:43:25;;;;;;;27.08;17.60;;;;;;;;;;6249819;22;20015;-68
2023/01/07 03:45:52;;;;;;;27.45;16.08;;;;;;;;;;6250014;22;20398;-68
2023/01/07 03:48:18;;;;;;;23.42;15.55;;;;;;;;;;6276675;22;20006;-67
2023/01/07 03:50:44;;;;;;;26.90;16.33;;;;;;;;;;6276749;22;20003;-68
2023/01/07 03:53:10;;;;;;;23.05;16.00;;;;;;;;;;6277291;22;20081;-68
2023/01/07 03:55:36;;;;;;;21.17;14.75;;;;;;;;;;6277141;22;20002;-67
2023/01/07 03:58:02;;;;;;;22.45;14.45;;;;;;;;;;6249510;22;20007;-67
2023/01/07 04:00:28;;;;;;;23.42;13.77;;;;;;;;;;6276793;22;20046;-68
2023/01/07 04:02:54;;;;;;;23.85;15.73;;;;;;;;;;6276764;22;20090;-68
2023/01/07 04:05:20;;;;;;;21.02;15.07;;;;;;;;;;6276950;22;20003;-68
2023/01/07 04:07:46;;;;;;;21.65;14.73;;;;;;;;;;6276717;22;20367;-67
2023/01/07 04:10:12;;;;;;;22.55;15.25;;;;;;;;;;6276856;22;20334;-67
2023/01/07 04:12:38;;;;;;;22.35;14.88;;;;;;;;;;6249238;22;20319;-68
2023/01/07 04:15:04;;;;;;;21.08;13.70;;;;;;;;;;6276479;22;20418;-67
2023/01/07 04:17:30;;;;;;;20.88;13.93;;;;;;;;;;6276560;22;20004;-68
2023/01/07 04:19:57;;;;;;;22.48;13.90;;;;;;;;;;6276704;22;20000;-68
2023/01/07 04:22:23;;;;;;;17.77;12.82;;;;;;;;;;6276458;22;20000;-68
2023/01/07 04:24:49;;;;;;;18.92;13.73;;;;;;;;;;6276265;22;20008;-70
2023/01/07 04:27:15;;;;;;;19.88;14.23;;;;;;;;;;6275974;22;20000;-67
2023/01/07 04:29:41;;;;;;;24.73;14.30;;;;;;;;;;6276113;22;20090;-68
2023/01/07 04:32:07;;;;;;;18.90;12.77;;;;;;;;;;6276828;22;20011;-67
2023/01/07 04:34:33;;;;;;;26.40;15.50;;;;;;;;;;6276454;22;19999;-68
2023/01/07 04:36:59;;;;;;;23.00;15.27;;;;;;;;;;6276777;22;20095;-68
2023/01/07 04:39:25;;;;;;;25.17;14.57;;;;;;;;;;6276506;22;20004;-68
2023/01/07 04:41:51;;;;;;;23.55;16.15;;;;;;;;;;6276106;22;20000;-68
2023/01/07 04:44:17;;;;;;;23.98;16.02;;;;;;;;;;6276447;22;20390;-68
2023/01/07 04:46:43;;;;;;;29.43;17.17;;;;;;;;;;6276331;22;20046;-68
2023/01/07 04:49:10;;;;;;;22.73;16.83;;;;;;;;;;6276413;22;20004;-67
2023/01/07 04:51:36;;;;;;;25.60;18.33;;;;;;;;;;6276569;22;20000;-67
2023/01/07 04:54:02;;;;;;;29.35;17.17;;;;;;;;;;6276371;22;20000;-68
2023/01/07 04:56:28;;;;;;;27.17;17.65;;;;;;;;;;6276398;22;20000;-69
2023/01/07 04:58:54;;;;;;;23.98;17.83;;;;;;;;;;6276467;22;20030;-68
2023/01/07 05:01:20;;;;;;;26.35;17.60;;;;;;;;;;6276456;22;20004;-68
2023/01/07 05:03:46;;;;;;;24.42;17.63;;;;;;;;;;6276189;22;20012;-68
2023/01/07 05:06:12;;;;;;;23.58;17.60;;;;;;;;;;6276029;22;19995;-69
2023/01/07 05:08:38;;;;;;;27.92;18.20;;;;;;;;;;6276345;22;20004;-69
2023/01/07 05:11:05;;;;;;;29.25;20.15;;;;;;;;;;6276133;22;20322;-69
2023/01/07 05:13:34;;;;;;;27.00;18.80;;;;;;;;;;6276221;22;20070;-69
2023/01/07 05:16:00;;;;;;;29.15;19.88;;;;;;;;;;6276210;22;20334;-69
2023/01/07 05:18:26;;;;;;;26.63;18.73;;;;;;;;;;6276341;22;20007;-69
2023/01/07 05:20:52;;;;;;;32.88;19.48;;;;;;;;;;6276294;22;20014;-69
2023/01/07 05:23:18;;;;;;;28.42;17.27;;;;;;;;;;6276562;22;20010;-68
2023/01/07 05:25:44;;;;;;;24.95;17.50;;;;;;;;;;6276337;22;20398;-69
2023/01/07 05:28:11;;;;;;;31.80;17.70;;;;;;;;;;6276183;22;20016;-69
2023/01/07 05:30:38;;;;;;;24.10;16.42;;;;;;;;;;6275941;22;20412;-68
2023/01/07 05:33:06;;;;;;;23.33;14.98;;;;;;;;;;6276334;22;20000;-69
2023/01/07 05:35:32;;;;;;;20.92;14.43;;;;;;;;;;6276201;22;19999;-69
2023/01/07 05:37:58;;;;;;;21.83;14.90;;;;;;;;;;6276188;22;20000;-69
2023/01/07 05:40:24;;;;;;;26.02;14.65;;;;;;;;;;6276503;22;19996;-69
2023/01/07 05:42:50;;;;;;;23.20;13.73;;;;;;;;;;6275825;22;19999;-68
2023/01/07 05:45:16;;;;;;;21.38;14.60;;;;;;;;;;6276104;22;20075;-69
2023/01/07 05:47:42;;;;;;;23.35;13.85;;;;;;;;;;6275883;22;20075;-69
2023/01/07 05:50:09;;;;;;;20.80;14.38;;;;;;;;;;6275828;22;20007;-68
2023/01/07 05:52:35;;;;;;;19.48;13.60;;;;;;;;;;6276350;22;20000;-69
2023/01/07 05:55:01;;;;;;;24.27;14.32;;;;;;;;;;6278050;22;19996;-69
2023/01/07 05:57:27;;;;;;;20.23;14.20;;;;;;;;;;6278126;22;20079;-69
2023/01/07 05:59:53;;;;;;;27.10;15.27;;;;;;;;;;6278012;22;19996;-69
2023/01/07 06:02:19;;;;;;;27.77;14.90;;;;;;;;;;6277859;22;20010;-69
2023/01/07 06:04:45;;;;;;;24.45;14.40;;;;;;;;;;6278011;22;20011;-68
2023/01/07 06:07:11;;;;;;;32.97;14.85;;;;;;;;;;6278044;22;20000;-69
2023/01/07 06:09:37;;;;;;;23.90;15.23;;;;;;;;;;6278106;22;20323;-69
2023/01/07 06:12:03;;;;;;;24.98;13.93;;;;;;;;;;6277772;22;20426;-69
2023/01/07 06:14:29;;;;;;;24.85;14.70;;;;;;;;;;6277697;22;20426;-68
2023/01/07 06:16:55;;;;;;;23.20;14.45;;;;;;;;;;6277558;22;20368;-68
2023/01/07 06:19:21;;;;;;;24.83;14.88;;;;;;;;;;6278058;22;20023;-68
2023/01/07 06:21:48;;;;;;;20.20;15.30;;;;;;;;;;6277642;22;20334;-68
2023/01/07 06:24:14;;;;;;;22.70;14.63;;;;;;;;;;6277478;22;20023;-68
2023/01/07 06:26:40;;;;;;;22.90;14.17;;;;;;;;;;6277539;22;20000;-68
2023/01/07 06:29:06;;;;;;;24.27;14.57;;;;;;;;;;6277343;22;20236;-69
2023/01/07 06:31:32;;;;;;;20.98;15.65;;;;;;;;;;6277655;22;20000;-68
2023/01/07 06:33:58;;;;;;;20.30;15.07;;;;;;;;;;6277447;22;19999;-68
2023/01/07 06:36:25;;;;;;;23.33;15.48;;;;;;;;;;6277113;22;19996;-69
2023/01/07 06:38:51;;;;;;;27.20;15.88;;;;;;;;;;6277415;22;20426;-68
2023/01/07 06:41:17;;;;;;;24.55;15.90;;;;;;;;;;6277541;22;20430;-68
2023/01/07 06:43:43;;;;;;;23.63;15.10;;;;;;;;;;6277338;22;20085;-68
2023/01/07 06:46:09;;;;;;;23.15;16.00;;;;;;;;;;6277083;22;20010;-69
2023/01/07 06:48:35;;;;;;;24.75;14.65;;;;;;;;;;6277406;22;20023;-68
2023/01/07 06:51:01;;;;;;;22.95;15.32;;;;;;;;;;6276941;22;20002;-68
2023/01/07 06:53:27;;;;;;;28.27;15.32;;;;;;;;;;6250518;22;20015;-69
2023/01/07 06:55:53;;;;;;;22.65;15.60;;;;;;;;;;6277513;22;20000;-69
2023/01/07 06:58:19;;;;;;;23.70;15.80;;;;;;;;;;6277250;22;20083;-68
2023/01/07 07:00:45;;;;;;;28.08;16.05;;;;;;;;;;6277342;22;19996;-68
2023/01/07 07:03:11;;;;;;;27.80;16.92;;;;;;;;;;6277079;22;20010;-68
2023/01/07 07:05:37;;;;;;;22.48;15.82;;;;;;;;;;6277029;22;20070;-69
2023/01/07 07:08:06;;;;;;;29.92;17.92;;;;;;;;;;6277193;22;20006;-68
2023/01/07 07:10:33;;;;;;;24.98;17.48;;;;;;;;;;6277549;22;19996;-68
2023/01/07 07:12:59;;;;;;;22.48;16.65;;;;;;;;;;6277051;22;20419;-68
2023/01/07 07:15:25;;;;;;;28.08;16.73;;;;;;;;;;6277004;22;20418;-68
2023/01/07 07:17:51;;;;;;;28.33;16.83;;;;;;;;;;6276840;22;20000;-68
2023/01/07 07:20:17;;;;;;;26.98;16.73;;;;;;;;;;6249755;22;20343;-68
2023/01/07 07:22:47;;;;;;;24.02;16.90;;;;;;;;;;6277107;22;20338;-68
2023/01/07 07:25:13;;;;;;;28.50;18.17;;;;;;;;;;6277723;22;20011;-69
2023/01/07 07:27:39;;;;;;;26.77;18.08;;;;;;;;;;6277037;22;20008;-68
2023/01/07 07:30:07;;;;;;;24.63;17.98;;;;;;;;;;6276831;22;20074;-69
2023/01/07 07:32:33;;;;;;;27.08;19.00;;;;;;;;;;6277488;22;20014;-69
2023/01/07 07:34:59;;;;;;;27.95;19.33;;;;;;;;;;6276977;22;19996;-68
2023/01/07 07:37:25;;;;;;;28.83;19.33;;;;;;;;;;6276627;22;20431;-68
2023/01/07 07:39:51;;;;;;;30.57;20.60;;;;;;;;;;6276742;22;19996;-69
2023/01/07 07:42:17;;;;;;;30.23;20.13;;;;;;;;;;6277226;22;20003;-68
2023/01/07 07:44:43;;;;;;;26.55;18.98;;;;;;;;;;6276832;22;20050;-68
2023/01/07 07:47:09;;;;;;;26.70;18.58;;;;;;;;;;6277050;22;20000;-68
2023/01/07 07:49:35;;;;;;;31.02;20.05;;;;;;;;;;6276768;22;20000;-68
2023/01/07 07:52:01;;;;;;;29.80;19.27;;;;;;;;;;6277135;22;20391;-68
2023/01/07 07:54:28;;;;;;;29.77;20.25;;;;;;;;;;6276916;22;19995;-68
2023/01/07 07:56:54;;;;;;;34.90;21.48;;;;;;;;;;6276902;22;20004;-69
2023/01/07 07:59:21;;;;;;;33.40;21.77;;;;;;;;;;6277000;22;20003;-68
2023/01/07 08:01:47;;;;;;;34.93;22.47;;;;;;;;;;6277576;22;20078;-68
2023/01/07 08:04:13;;;;;;;33.80;23.67;;;;;;;;;;6276728;22;20004;-68
2023/01/07 08:06:39;;;;;;;39.20;25.30;;;;;;;;;;6277065;22;20006;-68
2023/01/07 08:09:05;;;;;;;37.83;25.58;;;;;;;;;;6277354;22;20004;-69
2023/01/07 08:11:31;;;;;;;37.60;25.00;;;;;;;;;;6276913;22;20422;-68
2023/01/07 08:13:57;;;;;;;38.63;27.00;;;;;;;;;;6276670;22;20075;-68
2023/01/07 08:16:23;;;;;;;41.47;26.30;;;;;;;;;;6276589;22;19999;-68
2023/01/07 08:18:49;;;;;;;38.75;25.73;;;;;;;;;;6276750;22;20004;-69
2023/01/07 08:21:15;;;;;;;42.88;25.70;;;;;;;;;;6276508;22;19996;-68
2023/01/07 08:23:41;;;;;;;40.60;25.05;;;;;;;;;;6276499;22;20081;-68
2023/01/07 08:26:07;;;;;;;42.13;26.00;;;;;;;;;;6276229;22;20034;-68
2023/01/07 08:28:33;;;;;;;42.10;27.58;;;;;;;;;;6276185;22;20015;-69
2023/01/07 08:31:03;;;;;;;41.45;28.27;;;;;;;;;;6276754;22;20034;-69
2023/01/07 08:33:30;;;;;;;39.60;27.73;;;;;;;;;;6276655;22;20011;-68
2023/01/07 08:35:56;;;;;;;43.63;28.48;;;;;;;;;;6276549;22;20023;-69
2023/01/07 08:38:23;;;;;;;46.22;28.75;;;;;;;;;;6276622;22;20033;-68
2023/01/07 08:40:49;;;;;;;43.17;26.10;;;;;;;;;;6276048;22;20000;-68
2023/01/07 08:43:15;;;;;;;39.03;26.05;;;;;;;;;;6275917;22;20053;-68
2023/01/07 08:45:42;;;;;;;39.30;26.38;;;;;;;;;;6275954;22;19999;-67
2023/01/07 08:48:08;;;;;;;38.45;26.60;;;;;;;;;;6247965;22;20000;-68
2023/01/07 08:50:34;;;;;;;40.78;26.25;;;;;;;;;;6275369;22;20031;-68
2023/01/07 08:53:00;;;;;;;44.00;26.73;;;;;;;;;;6276114;22;19995;-69
2023/01/07 08:55:27;;;;;;;43.40;27.63;;;;;;;;;;6276219;22;20012;-68
2023/01/07 08:57:53;;;;;;;36.97;26.63;;;;;;;;;;6276515;22;20339;-68
2023/01/07 09:00:19;;;;;;;39.40;27.13;;;;;;;;;;6276467;22;20007;-68
2023/01/07 09:02:45;;;;;;;41.65;25.77;;;;;;;;;;6276063;22;20034;-68
2023/01/07 09:05:11;;;;;;;38.00;27.27;;;;;;;;;;6276023;22;20062;-68
2023/01/07 09:07:37;;;;;;;41.90;29.17;;;;;;;;;;6276033;22;20031;-68
2023/01/07 09:10:04;;;;;;;43.67;28.83;;;;;;;;;;6276371;22;20003;-68
2023/01/07 09:12:30;;;;;;;42.75;28.48;;;;;;;;;;6276424;22;20075;-68
2023/01/07 09:14:56;;;;;;;41.20;29.05;;;;;;;;;;6276081;22;20000;-68
2023/01/07 09:17:22;;;;;;;41.55;28.10;;;;;;;;;;6276337;22;20007;-68
2023/01/07 09:19:48;;;;;;;43.22;27.60;;;;;;;;;;6276201;22;20045;-68
2023/01/07 09:22:15;;;;;;;46.92;29.10;;;;;;;;;;6249023;22;20011;-69
2023/01/07 09:24:41;;;;;;;41.67;28.35;;;;;;;;;;6276051;22;20008;-68
2023/01/07 09:27:07;;;;;;;43.42;28.27;;;;;;;;;;6277095;22;20426;-68
2023/01/07 09:29:33;;;;;;;41.38;28.05;;;;;;;;;;6277784;22;20438;-67
2023/01/07 09:31:59;;;;;;;47.00;29.23;;;;;;;;;;6278229;22;20008;-68
2023/01/07 09:34:25;;;;;;;39.63;28.20;;;;;;;;;;6278211;22;20000;-68
2023/01/07 09:36:51;;;;;;;44.10;29.25;;;;;;;;;;6278300;22;19999;-68
2023/01/07 09:39:17;;;;;;;40.42;27.35;;;;;;;;;;6278245;22;19995;-70
2023/01/07 09:41:49;;;;;;;45.97;29.38;;;;;;;;;;6278407;22;20074;-67
2023/01/07 09:44:26;;;;;;;45.47;29.00;;;;;;;;;;6277938;22;20007;-68
2023/01/07 09:46:54;;;;;;;40.25;28.63;;;;;;;;;;6278208;22;19999;-68
2023/01/07 09:49:23;;;;;;;41.75;28.73;;;;;;;;;;6278005;22;20003;-68
2023/01/07 09:51:52;;;;;;;39.72;27.88;;;;;;;;;;6278322;22;20393;-69
2023/01/07 09:54:35;;;;;;;42.35;28.83;;;;;;;;;;6278038;22;20323;-69
2023/01/07 09:57:01;;;;;;;45.75;28.52;;;;;;;;;;6278517;22;20330;-68
2023/01/07 09:59:27;;;;;;;41.67;28.85;;;;;;;;;;6278222;22;20426;-68
2023/01/07 10:01:59;;;;;;;42.45;29.25;;;;;;;;;;6277779;22;20004;-68
2023/01/07 10:04:28;;;;;;;47.13;29.50;;;;;;;;;;6277867;22;20014;-69
2023/01/07 10:06:55;;;;;;;39.70;27.08;;;;;;;;;;6277558;22;20004;-69
2023/01/07 10:09:21;;;;;;;40.70;28.02;;;;;;;;;;6277751;22;20007;-68
2023/01/07 10:11:48;;;;;;;43.72;29.48;;;;;;;;;;6277686;22;19996;-68
2023/01/07 10:14:29;;;;;;;41.13;28.70;;;;;;;;;;6278285;22;20070;-68
2023/01/07 10:17:02;;;;;;;42.28;28.33;;;;;;;;;;6277548;22;20023;-69
2023/01/07 10:19:48;;;;;;;42.15;28.27;;;;;;;;;;6277561;22;20330;-68
2023/01/07 10:22:19;;;;;;;48.78;29.35;;;;;;;;;;6277502;22;20117;-69
2023/01/07 10:24:48;;;;;;;40.45;27.85;;;;;;;;;;6277531;22;20015;-69
2023/01/07 10:27:16;;;;;;;42.65;28.38;;;;;;;;;;6277620;22;19996;-68
2023/01/07 10:29:45;;;;;;;44.78;29.65;;;;;;;;;;6277769;22;20074;-68
2023/01/07 10:32:15;;;;;;;45.53;28.67;;;;;;;;;;6277436;22;20513;-68
2023/01/07 10:34:46;;;;;;;43.17;28.23;;;;;;;;;;6277603;22;20330;-68
2023/01/07 10:37:31;;;;;;;47.53;29.60;;;;;;;;;;6277810;22;20004;-69
2023/01/07 10:40:10;;;;;;;39.75;28.67;;;;;;;;;;6277229;22;20075;-68
2023/01/07 10:42:48;;;;;;;43.75;30.00;;;;;;;;;;6277855;22;20378;-68
2023/01/07 10:45:24;;;;;;;40.10;27.42;;;;;;;;;;6277355;22;20012;-69
2023/01/07 10:48:10;;;;;;;41.65;28.50;;;;;;;;;;6277254;22;19999;-68
2023/01/07 10:50:47;;;;;;;44.83;27.58;;;;;;;;;;6277788;22;20027;-68
2023/01/07 10:53:16;;;;;;;40.95;28.65;;;;;;;;;;6275340;22;20012;-68
2023/01/07 10:55:48;;;;;;;48.88;28.92;;;;;;;;;;6274065;22;20004;-69
2023/01/07 10:58:14;;;;;;;42.60;28.20;;;;;;;;;;6275253;22;20365;-68
2023/01/07 11:00:41;;;;;;;43.50;28.23;;;;;;;;;;6277377;22;20002;-68
2023/01/07 11:03:19;;;;;;;44.08;28.20;;;;;;;;;;6277081;22;20000;-69
2023/01/07 11:05:46;;;;;;;41.25;26.52;;;;;;;;;;6277645;22;20518;-68
2023/01/07 11:08:16;;;;;;;38.90;26.45;;;;;;;;;;6277324;22;20000;-69
2023/01/07 11:10:42;;;;;;;42.55;27.85;;;;;;;;;;6277144;22;20367;-68
2023/01/07 11:13:15;;;;;;;38.17;28.95;;;;;;;;;;6277137;22;20017;-68
2023/01/07 11:15:46;;;;;;;40.08;27.33;;;;;;;;;;6277269;22;20079;-68
2023/01/07 11:18:16;;;;;;;44.58;27.58;;;;;;;;;;6275415;22;20011;-68
2023/01/07 11:20:42;;;;;;;40.17;27.95;;;;;;;;;;6273952;22;20004;-69
2023/01/07 11:23:31;;;;;;;42.00;27.10;;;;;;;;;;6273467;22;20121;-69
2023/01/07 11:26:09;;;;;;;38.33;25.33;;;;;;;;;;6276914;22;20361;-69
2023/01/07 11:28:35;;;;;;;40.78;26.05;;;;;;;;;;6277071;22;20019;-69
2023/01/07 11:31:02;;;;;;;40.78;27.02;;;;;;;;;;6277083;22;19996;-69
2023/01/07 11:33:36;;;;;;;42.60;27.73;;;;;;;;;;6276504;22;20066;-70
2023/01/07 11:36:03;;;;;;;44.60;28.33;;;;;;;;;;6276783;22;20014;-68
2023/01/07 11:38:39;;;;;;;43.63;27.25;;;;;;;;;;6276806;22;20003;-69
2023/01/07 11:41:07;;;;;;;41.97;26.77;;;;;;;;;;6276755;22;20003;-69
2023/01/07 11:43:36;;;;;;;42.67;28.27;;;;;;;;;;6277081;22;20083;-69
2023/01/07 11:46:04;;;;;;;48.50;28.45;;;;;;;;;;6277226;22;20000;-69
2023/01/07 11:48:32;;;;;;;38.25;26.95;;;;;;;;;;6276712;22;20003;-69
2023/01/07 11:50:58;;;;;;;40.53;28.08;;;;;;;;;;6276414;22;20419;-68
2023/01/07 11:53:27;;;;;;;44.20;28.13;;;;;;;;;;6277074;22;20317;-69
2023/01/07 11:56:01;;;;;;;42.88;27.98;;;;;;;;;;6277339;22;20030;-69
2023/01/07 11:58:31;;;;;;;44.60;29.17;;;;;;;;;;6276936;22;20004;-69
2023/01/07 12:01:09;;;;;;;42.10;27.92;;;;;;;;;;6277147;22;20027;-69
2023/01/07 12:03:38;;;;;;;41.10;27.05;;;;;;;;;;6276802;22;20000;-68
2023/01/07 12:06:15;;;;;;;42.00;28.25;;;;;;;;;;6276819;22;20000;-69
2023/01/07 12:08:42;;;;;;;46.15;27.70;;;;;;;;;;6276951;22;20406;-68
2023/01/07 12:11:10;;;;;;;42.75;28.13;;;;;;;;;;6276712;22;20078;-68
2023/01/07 12:13:37;;;;;;;43.03;28.27;;;;;;;;;;6276574;22;20058;-68
2023/01/07 12:16:08;;;;;;;38.70;27.83;;;;;;;;;;6249566;22;20329;-69
2023/01/07 12:18:34;;;;;;;41.88;28.33;;;;;;;;;;6276859;22;20027;-68
2023/01/07 12:21:19;;;;;;;39.53;26.88;;;;;;;;;;6276825;22;20000;-68
2023/01/07 12:23:45;;;;;;;40.65;26.70;;;;;;;;;;6276434;22;20095;-67
2023/01/07 12:26:19;;;;;;;39.58;27.20;;;;;;;;;;6276959;22;19995;-68
2023/01/07 12:28:52;;;;;;;45.55;27.15;;;;;;;;;;6276899;22;20012;-68
2023/01/07 12:31:27;;;;;;;36.28;25.52;;;;;;;;;;6276676;22;20002;-68
2023/01/07 12:33:53;;;;;;;38.95;24.48;;;;;;;;;;6276430;22;20007;-68
2023/01/07 12:36:22;;;;;;;37.00;24.38;;;;;;;;;;6276812;22;20427;-68
2023/01/07 12:38:50;;;;;;;32.50;21.13;;;;;;;;;;6276652;22;20027;-67
2023/01/07 12:41:22;;;;;;;34.75;21.45;;;;;;;;;;6276456;22;20372;-70
2023/01/07 12:43:48;;;;;;;30.80;21.83;;;;;;;;;;6276611;22;20019;-68
2023/01/07 12:46:16;;;;;;;29.52;19.95;;;;;;;;;;6276438;22;20008;-69
2023/01/07 12:49:03;;;;;;;32.50;21.13;;;;;;;;;;6276480;22;20054;-68
2023/01/07 12:51:32;;;;;;;34.10;20.10;;;;;;;;;;6276695;22;20004;-68
2023/01/07 12:54:11;;;;;;;25.30;18.83;;;;;;;;;;6276260;22;20081;-68
2023/01/07 12:56:40;;;;;;;30.65;18.70;;;;;;;;;;6276391;22;20022;-68
2023/01/07 12:59:35;;;;;;;30.95;18.98;;;;;;;;;;6275973;22;19996;-68
2023/01/07 13:02:10;;;;;;;26.17;17.80;;;;;;;;;;6193864;22;20442;-68
2023/01/07 13:04:38;;;;;;;26.35;17.58;;;;;;;;;;6276894;22;20442;-68
2023/01/07 13:07:16;;;;;;;33.40;19.65;;;;;;;;;;6276657;22;20012;-67
2023/01/07 13:09:53;;;;;;;29.10;18.50;;;;;;;;;;6276323;22;20004;-68
2023/01/07 13:12:46;;;;;;;25.42;17.55;;;;;;;;;;6276910;22;20004;-71
2023/01/07 13:15:16;;;;;;;25.30;17.15;;;;;;;;;;6275757;22;20000;-67
2023/01/07 13:17:42;;;;;;;25.33;16.20;;;;;;;;;;6276067;22;20000;-67
2023/01/07 13:20:12;;;;;;;27.77;17.63;;;;;;;;;;6276197;22;20019;-68
2023/01/07 13:22:44;;;;;;;32.42;21.20;;;;;;;;;;6276358;22;20050;-67
2023/01/07 13:25:42;;;;;;;29.70;19.45;;;;;;;;;;6276060;22;20018;-67
2023/01/07 13:28:08;;;;;;;22.27;15.63;;;;;;;;;;6225157;22;20020;-67
2023/01/07 13:30:37;;;;;;;27.45;17.63;;;;;;;;;;6276287;22;20019;-68
2023/01/07 13:33:10;;;;;;;27.80;18.55;;;;;;;;;;6276583;22;20008;-68
2023/01/07 13:35:36;;;;;;;29.65;20.10;;;;;;;;;;6276041;22;20419;-68
2023/01/07 13:38:02;;;;;;;31.42;20.52;;;;;;;;;;6276284;22;20000;-67
2023/01/07 13:40:37;;;;;;;31.13;21.20;;;;;;;;;;6276082;22;20046;-68
2023/01/07 13:43:15;;;;;;;28.60;20.40;;;;;;;;;;6275475;22;20000;-67
2023/01/07 13:45:46;;;;;;;32.08;20.27;;;;;;;;;;6276031;22;20516;-68
2023/01/07 13:48:21;;;;;;;32.60;22.25;;;;;;;;;;6275901;22;20077;-69
2023/01/07 13:51:01;;;;;;;36.65;23.73;;;;;;;;;;6276074;22;19996;-68
2023/01/07 13:53:27;;;;;;;37.53;22.58;;;;;;;;;;6275992;22;19996;-69
2023/01/07 13:56:13;;;;;;;36.65;21.98;;;;;;;;;;6276131;22;20430;-68
2023/01/07 13:58:45;;;;;;;36.25;21.60;;;;;;;;;;6275836;22;20000;-68
2023/01/07 14:01:11;;;;;;;32.97;22.50;;;;;;;;;;6248287;22;20034;-69
2023/01/07 14:03:40;;;;;;;40.50;25.02;;;;;;;;;;6275824;22;20031;-69
2023/01/07 14:06:21;;;;;;;35.75;24.05;;;;;;;;;;6275904;22;20373;-68
2023/01/07 14:08:49;;;;;;;34.47;21.95;;;;;;;;;;6276114;22;19999;-68
2023/01/07 14:11:16;;;;;;;31.60;21.30;;;;;;;;;;6275730;22;20028;-68
2023/01/07 14:13:52;;;;;;;36.35;21.05;;;;;;;;;;6276236;22;20000;-68
2023/01/07 14:16:30;;;;;;;43.03;27.33;;;;;;;;;;6278128;22;19999;-68
2023/01/07 14:18:59;;;;;;;37.33;25.15;;;;;;;;;;6277877;22;20004;-68
2023/01/07 14:21:35;;;;;;;53.45;39.70;;;;;;;;;;6277931;22;20007;-68
2023/01/07 14:24:13;;;;;;;38.65;27.83;;;;;;;;;;6277775;22;20012;-67
2023/01/07 14:26:49;;;;;;;33.08;21.65;;;;;;;;;;6277625;22;20434;-69
2023/01/07 14:29:25;;;;;;;28.98;20.52;;;;;;;;;;6277361;22;20011;-68